createdAt,value
2023-07-18T00:02:13.366Z,2.20
2023-07-18T00:04:41.408Z,2.00
2023-07-18T00:07:08.777Z,2.17
2023-07-18T00:09:38.637Z,2.25
2023-07-18T00:12:10.032Z,1.73
2023-07-18T00:14:39.660Z,2.35
2023-07-18T00:17:12.375Z,2.50
2023-07-18T00:19:41.332Z,2.33
2023-07-18T00:22:09.009Z,2.42
2023-07-18T00:24:39.625Z,2.42
2023-07-18T00:27:07.756Z,5.03
2023-07-18T00:29:35.239Z,2.50
2023-07-18T00:32:08.516Z,3.00
2023-07-18T00:34:36.798Z,3.03
2023-07-18T00:37:04.299Z,3.10
2023-07-18T00:39:31.315Z,3.20
2023-07-18T00:42:01.746Z,2.80
2023-07-18T00:44:28.752Z,3.30
2023-07-18T00:46:58.394Z,3.03
2023-07-18T00:49:26.804Z,3.08
2023-07-18T00:51:56.347Z,2.70
2023-07-18T00:54:25.568Z,3.53
2023-07-18T00:56:52.695Z,3.00
2023-07-18T00:59:21.078Z,3.10
2023-07-18T01:01:49.548Z,2.97
2023-07-18T01:04:19.626Z,2.97
2023-07-18T01:06:50.474Z,3.30
2023-07-18T01:09:23.322Z,3.20
2023-07-18T01:11:53.878Z,2.88
2023-07-18T01:14:23.142Z,3.55
2023-07-18T01:16:50.154Z,3.22
2023-07-18T01:19:16.849Z,2.90
2023-07-18T01:21:43.811Z,3.20
2023-07-18T01:24:11.314Z,3.28
2023-07-18T01:26:38.088Z,3.13
2023-07-18T01:29:05.471Z,3.28
2023-07-18T01:31:35.466Z,3.10
2023-07-18T01:34:03.994Z,3.08
2023-07-18T01:36:30.945Z,2.92
2023-07-18T01:38:58.485Z,2.78
2023-07-18T01:41:25.299Z,3.20
2023-07-18T01:43:51.893Z,3.30
2023-07-18T01:46:18.647Z,2.92
2023-07-18T01:48:45.386Z,2.70
2023-07-18T01:51:12.189Z,3.05
2023-07-18T01:53:39.085Z,3.03
2023-07-18T01:56:07.214Z,3.33
2023-07-18T01:58:35.017Z,3.20
2023-07-18T02:01:07.274Z,2.72
2023-07-18T02:03:34.683Z,2.50
2023-07-18T02:06:04.397Z,3.28
2023-07-18T02:08:31.270Z,3.17
2023-07-18T02:10:59.953Z,3.38
2023-07-18T02:13:26.595Z,3.05
2023-07-18T02:15:53.199Z,2.83
2023-07-18T02:18:20.148Z,3.60
2023-07-18T02:20:47.145Z,3.22
2023-07-18T02:23:13.901Z,3.20
2023-07-18T02:25:40.728Z,2.70
2023-07-18T02:28:08.804Z,3.10
2023-07-18T02:30:36.465Z,2.70
2023-07-18T02:33:06.273Z,3.00
2023-07-18T02:35:33.064Z,3.30
2023-07-18T02:38:00.033Z,3.03
2023-07-18T02:40:26.669Z,2.92
2023-07-18T02:42:53.417Z,2.80
2023-07-18T02:45:21.380Z,2.92
2023-07-18T02:47:48.056Z,3.60
2023-07-18T02:50:14.786Z,2.75
2023-07-18T02:52:41.500Z,3.05
2023-07-18T02:55:08.825Z,3.10
2023-07-18T02:57:37.213Z,2.90
2023-07-18T03:00:07.893Z,2.80
2023-07-18T03:02:35.586Z,2.65
2023-07-18T03:05:03.197Z,2.70
2023-07-18T03:07:29.902Z,2.70
2023-07-18T03:09:56.938Z,2.83
2023-07-18T03:12:23.663Z,2.30
2023-07-18T03:14:51.032Z,2.25
2023-07-18T03:17:18.122Z,3.00
2023-07-18T03:19:44.860Z,2.75
2023-07-18T03:22:12.709Z,2.33
2023-07-18T03:24:39.505Z,2.80
2023-07-18T03:27:06.480Z,2.50
2023-07-18T03:29:33.269Z,2.63
2023-07-18T03:32:02.209Z,2.10
2023-07-18T03:34:29.886Z,2.28
2023-07-18T03:36:56.903Z,2.30
2023-07-18T03:39:23.835Z,2.50
2023-07-18T03:41:50.748Z,2.53
2023-07-18T03:44:17.407Z,2.42
2023-07-18T03:46:44.452Z,2.42
2023-07-18T03:49:11.239Z,2.10
2023-07-18T03:51:38.164Z,2.30
2023-07-18T03:54:06.936Z,2.20
2023-07-18T03:56:34.473Z,2.13
2023-07-18T03:59:01.088Z,2.28
2023-07-18T04:01:27.853Z,2.50
2023-07-18T04:03:54.717Z,2.78
2023-07-18T04:06:22.990Z,2.70
2023-07-18T04:08:49.686Z,2.55
2023-07-18T04:11:16.376Z,2.70
2023-07-18T04:13:43.062Z,2.40
2023-07-18T04:16:10.182Z,2.78
2023-07-18T04:18:38.146Z,2.40
2023-07-18T04:21:05.096Z,2.50
2023-07-18T04:23:35.069Z,2.90
2023-07-18T04:26:04.215Z,2.63
2023-07-18T04:28:35.427Z,2.65
2023-07-18T04:31:03.208Z,2.58
2023-07-18T04:33:40.674Z,2.30
2023-07-18T04:36:08.776Z,2.60
2023-07-18T04:38:36.224Z,2.25
2023-07-18T04:41:06.484Z,2.40
2023-07-18T04:43:33.222Z,2.20
2023-07-18T04:46:00.114Z,2.22
2023-07-18T04:48:27.216Z,2.45
2023-07-18T04:50:59.508Z,2.42
2023-07-18T04:53:30.970Z,2.60
2023-07-18T04:55:58.179Z,2.00
2023-07-18T04:58:26.529Z,2.28
2023-07-18T05:00:56.525Z,2.03
2023-07-18T05:03:24.066Z,3.47
2023-07-18T05:05:50.834Z,2.13
2023-07-18T05:08:18.355Z,2.30
2023-07-18T05:10:48.693Z,2.17
2023-07-18T05:13:15.424Z,2.30
2023-07-18T05:15:43.337Z,2.15
2023-07-18T05:18:21.650Z,2.00
2023-07-18T05:20:55.021Z,2.38
2023-07-18T05:23:22.025Z,1.90
2023-07-18T05:25:52.011Z,1.85
2023-07-18T05:28:24.536Z,1.92
2023-07-18T05:30:51.399Z,2.20
2023-07-18T05:33:18.525Z,2.05
2023-07-18T05:35:45.312Z,2.10
2023-07-18T05:38:11.922Z,1.88
2023-07-18T05:40:40.962Z,2.00
2023-07-18T05:43:07.894Z,2.33
2023-07-18T05:45:35.032Z,1.85
2023-07-18T05:48:01.785Z,2.33
2023-07-18T05:50:28.872Z,2.20
2023-07-18T05:52:55.687Z,1.92
2023-07-18T05:55:31.260Z,2.22
2023-07-18T05:57:58.128Z,2.42
2023-07-18T06:00:24.835Z,2.45
2023-07-18T06:02:51.912Z,2.05
2023-07-18T06:05:18.871Z,2.35
2023-07-18T06:07:45.854Z,2.10
2023-07-18T06:10:38.059Z,2.30
2023-07-18T06:13:11.955Z,2.10
2023-07-18T06:15:40.912Z,2.30
2023-07-18T06:18:23.539Z,2.40
2023-07-18T06:20:51.194Z,2.80
2023-07-18T06:26:18.896Z,2.80
2023-07-18T06:28:45.624Z,2.20
2023-07-18T06:31:27.378Z,2.50
2023-07-18T06:33:54.857Z,2.67
2023-07-18T06:36:24.982Z,2.60
2023-07-18T06:38:51.924Z,2.95
2023-07-18T06:41:19.668Z,2.67
2023-07-18T06:43:47.256Z,2.88
2023-07-18T06:46:26.804Z,2.22
2023-07-18T06:48:58.940Z,2.58
2023-07-18T06:51:30.575Z,2.88
2023-07-18T06:53:57.765Z,2.83
2023-07-18T06:56:24.656Z,3.00
2023-07-18T06:58:51.508Z,3.42
2023-07-18T07:01:18.606Z,2.60
2023-07-18T07:03:46.064Z,4.13
2023-07-18T07:06:14.754Z,2.90
2023-07-18T07:08:41.962Z,3.50
2023-07-18T07:11:09.600Z,3.47
2023-07-18T07:13:37.613Z,3.13
2023-07-18T07:16:06.624Z,3.03
2023-07-18T07:18:34.487Z,2.97
2023-07-18T07:21:01.696Z,2.53
2023-07-18T07:27:41.781Z,2.03
2023-07-18T07:44:23.797Z,1.80
2023-07-18T08:05:45.236Z,1.85
2023-07-18T08:29:32.187Z,1.45
2023-07-18T10:09:12.174Z,0.75
2023-07-18T10:12:01.542Z,1.08
2023-07-18T10:14:37.159Z,1.27
2023-07-18T10:17:09.078Z,1.50
2023-07-18T10:19:49.744Z,0.90
2023-07-18T10:22:28.071Z,0.90
2023-07-18T10:25:14.395Z,1.00
2023-07-18T10:27:50.927Z,1.02
2023-07-18T10:30:20.308Z,1.25
2023-07-18T10:35:58.902Z,0.80
2023-07-18T10:38:35.882Z,1.42
2023-07-18T10:41:02.955Z,1.40
2023-07-18T10:43:32.894Z,1.15
2023-07-18T10:46:07.572Z,0.80
2023-07-18T10:48:34.564Z,1.35
2023-07-18T10:51:01.674Z,0.90
2023-07-18T10:53:29.580Z,1.48
2023-07-18T10:55:58.961Z,1.27
2023-07-18T10:58:26.149Z,0.70
2023-07-18T11:01:02.735Z,1.52
2023-07-18T11:03:32.524Z,1.52
2023-07-18T11:10:36.349Z,0.80
2023-07-18T11:13:03.622Z,1.00
2023-07-18T11:15:30.737Z,0.90
2023-07-18T11:17:57.756Z,0.90
2023-07-18T11:20:32.726Z,1.45
2023-07-18T11:23:02.959Z,0.85
2023-07-18T11:25:30.196Z,0.75
2023-07-18T11:27:57.054Z,0.80
2023-07-18T11:30:35.124Z,0.88
2023-07-18T11:33:13.492Z,1.20
2023-07-18T11:44:23.932Z,0.80
2023-07-18T11:47:11.412Z,1.05
2023-07-18T11:49:38.432Z,1.33
2023-07-18T11:52:13.748Z,0.90
2023-07-18T13:00:11.429Z,1.00
2023-07-18T13:07:18.344Z,0.52
2023-07-18T13:14:05.788Z,0.73
2023-07-18T13:16:41.618Z,0.73
2023-07-18T13:19:56.667Z,0.85
2023-07-18T13:23:34.628Z,0.80
2023-07-18T13:40:53.214Z,1.20
2023-07-18T14:44:39.319Z,0.90
2023-07-18T14:47:56.583Z,1.05
2023-07-18T15:46:46.704Z,1.40
2023-07-18T16:45:09.586Z,2.20
2023-07-18T16:48:03.030Z,1.33
2023-07-18T17:32:14.787Z,1.75
2023-07-18T17:35:15.541Z,1.83
2023-07-18T17:37:45.716Z,1.52
2023-07-18T17:40:13.029Z,1.77
2023-07-18T17:46:21.810Z,1.73
2023-07-18T17:49:09.967Z,3.08
2023-07-18T17:54:40.449Z,1.70
2023-07-18T17:57:11.372Z,1.42
2023-07-18T17:59:51.288Z,1.70
2023-07-18T18:02:29.571Z,1.50
2023-07-18T18:08:59.916Z,2.10
2023-07-18T18:11:44.128Z,1.52
2023-07-18T18:14:46.007Z,1.67
2023-07-18T18:17:13.260Z,1.92
2023-07-18T18:19:40.570Z,2.08
2023-07-18T18:25:10.171Z,1.63
2023-07-18T18:31:06.430Z,2.40
2023-07-18T18:38:07.350Z,1.75
2023-07-18T18:40:59.773Z,1.90
2023-07-18T18:44:23.720Z,1.88
2023-07-18T18:46:57.649Z,1.65
2023-07-18T18:52:53.827Z,3.50
2023-07-18T19:01:57.380Z,2.00
2023-07-18T19:04:38.378Z,2.30
2023-07-18T19:07:46.733Z,1.63
2023-07-18T19:11:08.182Z,1.88
2023-07-18T19:16:16.801Z,2.00
2023-07-18T19:18:18.998Z,2.10
2023-07-18T19:20:49.987Z,1.73
2023-07-18T19:23:41.914Z,1.63
2023-07-18T19:26:16.852Z,1.88
2023-07-18T19:28:43.991Z,1.83
2023-07-18T19:31:14.147Z,1.50
2023-07-18T19:33:56.753Z,1.80
2023-07-18T19:36:23.693Z,1.83
2023-07-18T20:20:28.868Z,1.27
2023-07-18T20:26:23.167Z,1.50
2023-07-18T20:29:37.988Z,1.30
2023-07-18T20:35:32.949Z,1.60
2023-07-18T20:38:00.675Z,2.17
2023-07-18T20:40:52.591Z,1.42
2023-07-18T20:43:22.487Z,1.75
2023-07-18T20:45:57.971Z,1.40
2023-07-18T20:48:25.911Z,1.83
2023-07-18T20:50:53.063Z,1.73
2023-07-18T20:53:21.020Z,2.00
2023-07-18T20:58:53.649Z,2.10
2023-07-18T21:01:22.208Z,1.30
2023-07-18T21:03:50.917Z,1.40
2023-07-18T21:06:21.782Z,1.23
2023-07-18T21:08:54.541Z,1.60
2023-07-18T21:11:21.857Z,1.88
2023-07-18T21:13:50.725Z,1.20
2023-07-18T21:16:17.730Z,1.50
2023-07-18T21:18:53.670Z,1.50
2023-07-18T21:21:20.815Z,2.17
2023-07-18T21:23:47.641Z,1.40
2023-07-18T21:26:17.614Z,1.50
2023-07-18T21:29:02.058Z,1.83
2023-07-18T21:31:31.161Z,1.50
2023-07-18T22:45:17.093Z,2.70
2023-07-18T22:47:44.347Z,2.00
2023-07-18T22:50:11.513Z,1.75
2023-07-18T22:52:38.268Z,1.70
2023-07-18T22:55:07.085Z,2.03
2023-07-18T22:57:33.886Z,2.35
2023-07-18T23:00:00.722Z,2.33
2023-07-18T23:02:27.799Z,2.20
2023-07-18T23:04:54.634Z,2.42
2023-07-18T23:07:22.446Z,2.20
2023-07-18T23:09:52.338Z,1.90
2023-07-18T23:12:22.186Z,1.95
2023-07-18T23:14:49.121Z,2.28
2023-07-18T23:17:15.870Z,1.67
2023-07-18T23:19:43.208Z,2.00
2023-07-18T23:22:10.523Z,1.73
2023-07-18T23:27:48.822Z,1.95
2023-07-18T23:30:36.140Z,2.15
2023-07-18T23:33:29.518Z,2.28
2023-07-18T23:36:13.564Z,1.80
2023-07-18T23:38:40.692Z,2.20
2023-07-18T23:41:15.976Z,2.20
2023-07-18T23:43:42.775Z,2.38
2023-07-18T23:46:15.043Z,2.33
2023-07-18T23:48:41.906Z,1.90
2023-07-18T23:51:08.904Z,1.92
2023-07-18T23:53:37.018Z,2.20
2023-07-18T23:56:03.862Z,2.05
2023-07-18T23:58:30.718Z,2.30
